sensor_id;sensor_type;location;lat;lon;timestamp;pressure;altitude;pressure_sealevel;temperature;humidity
69836;BME280;57132;51.972;4.450;2023-01-16T00:01:10;99448.59;;;3.11;100.00
69836;BME280;57132;51.972;4.450;2023-01-16T00:03:35;99459.72;;;3.16;100.00
69836;BME280;57132;51.972;4.450;2023-01-16T00:06:01;99452.38;;;3.22;100.00
69836;BME280;57132;51.972;4.450;2023-01-16T00:08:26;99435.13;;;3.16;100.00
69836;BME280;57132;51.972;4.450;2023-01-16T00:10:51;99422.53;;;3.21;100.00
69836;BME280;57132;51.972;4.450;2023-01-16T00:13:17;99414.16;;;3.14;100.00
69836;BME280;57132;51.972;4.450;2023-01-16T00:15:48;99411.63;;;3.13;100.00
69836;BME280;57132;51.972;4.450;2023-01-16T00:18:13;99410.97;;;3.09;100.00
69836;BME280;57132;51.972;4.450;2023-01-16T00:20:39;99409.56;;;3.04;100.00
69836;BME280;57132;51.972;4.450;2023-01-16T00:23:05;99402.28;;;3.07;100.00
69836;BME280;57132;51.972;4.450;2023-01-16T00:25:30;99421.28;;;3.12;100.00
69836;BME280;57132;51.972;4.450;2023-01-16T00:27:55;99410.97;;;3.09;100.00
69836;BME280;57132;51.972;4.450;2023-01-16T00:30:21;99408.34;;;3.09;100.00
69836;BME280;57132;51.972;4.450;2023-01-16T00:32:47;99419.91;;;3.07;100.00
69836;BME280;57132;51.972;4.450;2023-01-16T00:35:12;99408.88;;;3.00;100.00
69836;BME280;57132;51.972;4.450;2023-01-16T00:37:37;99398.34;;;3.00;100.00
69836;BME280;57132;51.972;4.450;2023-01-16T00:40:03;99393.06;;;3.00;100.00
69836;BME280;57132;51.972;4.450;2023-01-16T00:42:29;99387.06;;;2.98;100.00
69836;BME280;57132;51.972;4.450;2023-01-16T00:44:54;99378.41;;;2.96;100.00
69836;BME280;57132;51.972;4.450;2023-01-16T00:47:20;99381.22;;;2.93;100.00
69836;BME280;57132;51.972;4.450;2023-01-16T00:49:45;99364.78;;;2.89;100.00
69836;BME280;57132;51.972;4.450;2023-01-16T00:52:10;99361.28;;;2.89;100.00
69836;BME280;57132;51.972;4.450;2023-01-16T00:54:36;99347.47;;;2.85;100.00
69836;BME280;57132;51.972;4.450;2023-01-16T00:57:01;99349.34;;;2.83;100.00
69836;BME280;57132;51.972;4.450;2023-01-16T00:59:27;99336.06;;;2.85;100.00
69836;BME280;57132;51.972;4.450;2023-01-16T01:01:52;99340.28;;;2.87;100.00
69836;BME280;57132;51.972;4.450;2023-01-16T01:04:17;99324.31;;;2.90;100.00
69836;BME280;57132;51.972;4.450;2023-01-16T01:06:43;99321.56;;;2.92;100.00
69836;BME280;57132;51.972;4.450;2023-01-16T01:09:09;99317.97;;;2.93;100.00
69836;BME280;57132;51.972;4.450;2023-01-16T01:11:34;99309.88;;;2.96;100.00
69836;BME280;57132;51.972;4.450;2023-01-16T01:14:00;99308.94;;;2.97;100.00
69836;BME280;57132;51.972;4.450;2023-01-16T01:16:25;99314.56;;;3.05;100.00
69836;BME280;57132;51.972;4.450;2023-01-16T01:18:50;99303.06;;;3.06;100.00
69836;BME280;57132;51.972;4.450;2023-01-16T01:21:16;99289.78;;;3.08;100.00
69836;BME280;57132;51.972;4.450;2023-01-16T01:23:42;99283.78;;;3.06;100.00
69836;BME280;57132;51.972;4.450;2023-01-16T01:26:09;99277.88;;;3.02;100.00
69836;BME280;57132;51.972;4.450;2023-01-16T01:28:34;99281.66;;;2.98;100.00
69836;BME280;57132;51.972;4.450;2023-01-16T01:31:04;99285.13;;;2.99;100.00
69836;BME280;57132;51.972;4.450;2023-01-16T01:33:31;99272.91;;;2.98;100.00
69836;BME280;57132;51.972;4.450;2023-01-16T01:35:56;99276.91;;;3.03;100.00
69836;BME280;57132;51.972;4.450;2023-01-16T01:38:21;99253.19;;;3.03;100.00
69836;BME280;57132;51.972;4.450;2023-01-16T01:40:47;99250.97;;;2.97;100.00
69836;BME280;57132;51.972;4.450;2023-01-16T01:43:14;99243.97;;;2.96;100.00
69836;BME280;57132;51.972;4.450;2023-01-16T01:45:40;99245.28;;;3.03;100.00
69836;BME280;57132;51.972;4.450;2023-01-16T01:50:45;99232.97;;;3.16;100.00
69836;BME280;57132;51.972;4.450;2023-01-16T01:53:16;99224.56;;;3.24;100.00
69836;BME280;57132;51.972;4.450;2023-01-16T01:55:45;99225.00;;;3.31;100.00
69836;BME280;57132;51.972;4.450;2023-01-16T01:58:12;99203.72;;;3.34;100.00
69836;BME280;57132;51.972;4.450;2023-01-16T02:00:44;99204.25;;;3.39;100.00
69836;BME280;57132;51.972;4.450;2023-01-16T02:03:15;99202.88;;;3.33;100.00
69836;BME280;57132;51.972;4.450;2023-01-16T02:05:46;99200.44;;;3.30;100.00
69836;BME280;57132;51.972;4.450;2023-01-16T02:08:16;99202.22;;;3.30;100.00
69836;BME280;57132;51.972;4.450;2023-01-16T02:10:45;99191.13;;;3.25;100.00
69836;BME280;57132;51.972;4.450;2023-01-16T02:13:12;99185.97;;;3.23;100.00
69836;BME280;57132;51.972;4.450;2023-01-16T02:15:38;99205.06;;;3.27;100.00
69836;BME280;57132;51.972;4.450;2023-01-16T02:18:27;99182.50;;;3.23;100.00
69836;BME280;57132;51.972;4.450;2023-01-16T02:21:16;99181.72;;;3.20;100.00
69836;BME280;57132;51.972;4.450;2023-01-16T02:24:13;99177.41;;;3.19;100.00
69836;BME280;57132;51.972;4.450;2023-01-16T02:29:50;99156.75;;;3.13;100.00
69836;BME280;57132;51.972;4.450;2023-01-16T02:32:21;99149.13;;;3.09;100.00
69836;BME280;57132;51.972;4.450;2023-01-16T02:35:05;99143.00;;;3.08;100.00
69836;BME280;57132;51.972;4.450;2023-01-16T02:40:25;99127.72;;;3.01;100.00
69836;BME280;57132;51.972;4.450;2023-01-16T02:45:43;99118.31;;;2.96;100.00
69836;BME280;57132;51.972;4.450;2023-01-16T02:48:31;99098.41;;;2.92;100.00
69836;BME280;57132;51.972;4.450;2023-01-16T02:51:09;99088.94;;;2.90;100.00
69836;BME280;57132;51.972;4.450;2023-01-16T02:53:45;99087.00;;;2.92;100.00
69836;BME280;57132;51.972;4.450;2023-01-16T02:56:19;99067.09;;;2.88;100.00
69836;BME280;57132;51.972;4.450;2023-01-16T02:58:51;99063.72;;;2.86;100.00
69836;BME280;57132;51.972;4.450;2023-01-16T03:01:19;99062.03;;;2.85;100.00
69836;BME280;57132;51.972;4.450;2023-01-16T03:04:01;99053.06;;;2.87;100.00
69836;BME280;57132;51.972;4.450;2023-01-16T03:15:10;99035.28;;;2.91;100.00
69836;BME280;57132;51.972;4.450;2023-01-16T03:20:37;99028.31;;;2.90;100.00
69836;BME280;57132;51.972;4.450;2023-01-16T03:23:09;99019.56;;;2.89;100.00
69836;BME280;57132;51.972;4.450;2023-01-16T03:25:58;99005.97;;;2.95;100.00
69836;BME280;57132;51.972;4.450;2023-01-16T03:36:49;98973.09;;;3.01;100.00
69836;BME280;57132;51.972;4.450;2023-01-16T03:39:20;98964.94;;;3.04;100.00
69836;BME280;57132;51.972;4.450;2023-01-16T03:41:47;98955.16;;;3.06;100.00
69836;BME280;57132;51.972;4.450;2023-01-16T03:44:23;98951.56;;;3.07;100.00
69836;BME280;57132;51.972;4.450;2023-01-16T03:46:54;98937.41;;;3.08;100.00
69836;BME280;57132;51.972;4.450;2023-01-16T03:49:25;98934.25;;;3.16;100.00
69836;BME280;57132;51.972;4.450;2023-01-16T03:51:56;98915.69;;;3.17;100.00
69836;BME280;57132;51.972;4.450;2023-01-16T03:57:24;98901.56;;;3.18;100.00
69836;BME280;57132;51.972;4.450;2023-01-16T03:59:52;98888.25;;;3.20;100.00
69836;BME280;57132;51.972;4.450;2023-01-16T04:02:32;98876.66;;;3.23;100.00
69836;BME280;57132;51.972;4.450;2023-01-16T04:05:29;98866.94;;;3.23;100.00
69836;BME280;57132;51.972;4.450;2023-01-16T04:08:03;98863.34;;;3.24;100.00
69836;BME280;57132;51.972;4.450;2023-01-16T04:10:36;98852.94;;;3.23;100.00
69836;BME280;57132;51.972;4.450;2023-01-16T04:13:12;98841.75;;;3.19;100.00
69836;BME280;57132;51.972;4.450;2023-01-16T04:15:42;98838.28;;;3.18;100.00
69836;BME280;57132;51.972;4.450;2023-01-16T04:18:09;98825.44;;;3.14;100.00
69836;BME280;57132;51.972;4.450;2023-01-16T04:20:35;98820.59;;;3.08;100.00
69836;BME280;57132;51.972;4.450;2023-01-16T04:23:03;98811.25;;;3.04;100.00
69836;BME280;57132;51.972;4.450;2023-01-16T04:25:29;98806.19;;;3.01;100.00
69836;BME280;57132;51.972;4.450;2023-01-16T04:27:54;98799.16;;;3.01;100.00
69836;BME280;57132;51.972;4.450;2023-01-16T04:30:19;98783.44;;;3.00;100.00
69836;BME280;57132;51.972;4.450;2023-01-16T04:32:45;98780.91;;;2.98;100.00
69836;BME280;57132;51.972;4.450;2023-01-16T04:35:20;98778.50;;;2.95;100.00
69836;BME280;57132;51.972;4.450;2023-01-16T04:37:52;98770.72;;;2.93;100.00
69836;BME280;57132;51.972;4.450;2023-01-16T04:40:23;98767.13;;;2.94;100.00
69836;BME280;57132;51.972;4.450;2023-01-16T04:42:50;98755.28;;;3.00;100.00
69836;BME280;57132;51.972;4.450;2023-01-16T04:45:15;98735.16;;;2.99;100.00
69836;BME280;57132;51.972;4.450;2023-01-16T04:47:46;98724.41;;;3.02;100.00
69836;BME280;57132;51.972;4.450;2023-01-16T04:50:12;98715.75;;;3.00;100.00
69836;BME280;57132;51.972;4.450;2023-01-16T04:52:37;98712.19;;;3.01;100.00
69836;BME280;57132;51.972;4.450;2023-01-16T04:55:03;98699.00;;;3.01;100.00
69836;BME280;57132;51.972;4.450;2023-01-16T04:57:28;98692.88;;;3.01;100.00
69836;BME280;57132;51.972;4.450;2023-01-16T04:59:59;98686.66;;;3.02;100.00
69836;BME280;57132;51.972;4.450;2023-01-16T05:02:24;98667.47;;;3.00;100.00
69836;BME280;57132;51.972;4.450;2023-01-16T05:04:50;98656.94;;;3.00;100.00
69836;BME280;57132;51.972;4.450;2023-01-16T05:07:20;98651.78;;;2.98;100.00
69836;BME280;57132;51.972;4.450;2023-01-16T05:09:46;98638.47;;;3.00;100.00
69836;BME280;57132;51.972;4.450;2023-01-16T05:12:17;98628.78;;;3.00;100.00
69836;BME280;57132;51.972;4.450;2023-01-16T05:14:43;98618.97;;;3.02;100.00
69836;BME280;57132;51.972;4.450;2023-01-16T05:17:08;98609.88;;;3.06;100.00
69836;BME280;57132;51.972;4.450;2023-01-16T05:19:34;98601.84;;;3.08;100.00
69836;BME280;57132;51.972;4.450;2023-01-16T05:22:00;98587.59;;;3.10;100.00
69836;BME280;57132;51.972;4.450;2023-01-16T05:24:25;98582.34;;;3.10;100.00
69836;BME280;57132;51.972;4.450;2023-01-16T05:26:51;98583.91;;;3.13;100.00
69836;BME280;57132;51.972;4.450;2023-01-16T05:29:16;98580.19;;;3.15;100.00
69836;BME280;57132;51.972;4.450;2023-01-16T05:31:48;98569.88;;;3.12;100.00
69836;BME280;57132;51.972;4.450;2023-01-16T05:34:13;98556.69;;;3.12;100.00
69836;BME280;57132;51.972;4.450;2023-01-16T05:36:39;98541.00;;;3.11;100.00
69836;BME280;57132;51.972;4.450;2023-01-16T05:39:04;98551.53;;;3.11;100.00
69836;BME280;57132;51.972;4.450;2023-01-16T05:41:29;98540.41;;;3.07;100.00
69836;BME280;57132;51.972;4.450;2023-01-16T05:43:55;98536.78;;;3.08;100.00
69836;BME280;57132;51.972;4.450;2023-01-16T05:46:20;98530.81;;;3.06;100.00
69836;BME280;57132;51.972;4.450;2023-01-16T05:48:45;98526.38;;;3.07;100.00
69836;BME280;57132;51.972;4.450;2023-01-16T05:51:11;98518.72;;;3.04;100.00
69836;BME280;57132;51.972;4.450;2023-01-16T05:53:37;98511.91;;;3.01;100.00
69836;BME280;57132;51.972;4.450;2023-01-16T05:56:07;98513.66;;;3.01;100.00
69836;BME280;57132;51.972;4.450;2023-01-16T05:58:33;98507.81;;;2.97;100.00
69836;BME280;57132;51.972;4.450;2023-01-16T06:00:58;98513.09;;;2.97;100.00
69836;BME280;57132;51.972;4.450;2023-01-16T06:03:24;98498.72;;;3.01;100.00
69836;BME280;57132;51.972;4.450;2023-01-16T06:05:49;98489.25;;;2.99;100.00
69836;BME280;57132;51.972;4.450;2023-01-16T06:08:24;98473.44;;;2.99;100.00
69836;BME280;57132;51.972;4.450;2023-01-16T06:10:53;98469.72;;;3.01;100.00
69836;BME280;57132;51.972;4.450;2023-01-16T06:13:19;98466.13;;;3.02;100.00
69836;BME280;57132;51.972;4.450;2023-01-16T06:15:44;98459.91;;;3.03;100.00
69836;BME280;57132;51.972;4.450;2023-01-16T06:18:09;98462.53;;;3.03;100.00
69836;BME280;57132;51.972;4.450;2023-01-16T06:20:35;98449.22;;;3.05;100.00
69836;BME280;57132;51.972;4.450;2023-01-16T06:23:01;98441.44;;;3.03;100.00
69836;BME280;57132;51.972;4.450;2023-01-16T06:25:26;98432.56;;;3.04;100.00
69836;BME280;57132;51.972;4.450;2023-01-16T06:27:52;98429.00;;;3.05;100.00
69836;BME280;57132;51.972;4.450;2023-01-16T06:30:17;98412.31;;;3.05;100.00
69836;BME280;57132;51.972;4.450;2023-01-16T06:32:47;98406.13;;;3.06;100.00
69836;BME280;57132;51.972;4.450;2023-01-16T06:35:13;98399.03;;;3.06;100.00
69836;BME280;57132;51.972;4.450;2023-01-16T06:37:38;98386.72;;;3.07;100.00
69836;BME280;57132;51.972;4.450;2023-01-16T06:40:04;98379.78;;;3.06;100.00
69836;BME280;57132;51.972;4.450;2023-01-16T06:42:31;98373.66;;;3.05;100.00
69836;BME280;57132;51.972;4.450;2023-01-16T06:44:56;98371.88;;;3.06;100.00
69836;BME280;57132;51.972;4.450;2023-01-16T06:47:21;98359.53;;;3.06;100.00
69836;BME280;57132;51.972;4.450;2023-01-16T06:49:47;98348.16;;;3.06;100.00
69836;BME280;57132;51.972;4.450;2023-01-16T06:52:12;98339.50;;;3.04;100.00
69836;BME280;57132;51.972;4.450;2023-01-16T06:54:38;98331.72;;;3.02;100.00
69836;BME280;57132;51.972;4.450;2023-01-16T06:57:03;98310.75;;;3.01;100.00
69836;BME280;57132;51.972;4.450;2023-01-16T06:59:31;98314.25;;;3.01;100.00
69836;BME280;57132;51.972;4.450;2023-01-16T07:01:56;98293.88;;;3.03;100.00
69836;BME280;57132;51.972;4.450;2023-01-16T07:04:21;98287.63;;;3.04;100.00
69836;BME280;57132;51.972;4.450;2023-01-16T07:06:48;98282.38;;;3.04;100.00
69836;BME280;57132;51.972;4.450;2023-01-16T07:09:16;98270.88;;;3.05;100.00
69836;BME280;57132;51.972;4.450;2023-01-16T07:11:43;98259.38;;;3.06;100.00
69836;BME280;57132;51.972;4.450;2023-01-16T07:14:10;98254.94;;;3.07;100.00
69836;BME280;57132;51.972;4.450;2023-01-16T07:16:54;98238.28;;;3.06;100.00
69836;BME280;57132;51.972;4.450;2023-01-16T07:19:38;98225.22;;;3.05;100.00
69836;BME280;57132;51.972;4.450;2023-01-16T07:22:23;98216.63;;;3.03;100.00
69836;BME280;57132;51.972;4.450;2023-01-16T07:25:02;98203.59;;;3.01;100.00
69836;BME280;57132;51.972;4.450;2023-01-16T07:27:28;98196.50;;;3.02;100.00
69836;BME280;57132;51.972;4.450;2023-01-16T07:29:54;98179.88;;;3.01;100.00
69836;BME280;57132;51.972;4.450;2023-01-16T07:32:20;98180.81;;;3.00;100.00
69836;BME280;57132;51.972;4.450;2023-01-16T07:34:45;98171.97;;;3.01;100.00
69836;BME280;57132;51.972;4.450;2023-01-16T07:37:10;98166.56;;;3.03;100.00
69836;BME280;57132;51.972;4.450;2023-01-16T07:39:36;98166.56;;;3.03;100.00
69836;BME280;57132;51.972;4.450;2023-01-16T07:42:03;98159.22;;;3.06;100.00
69836;BME280;57132;51.972;4.450;2023-01-16T07:44:29;98148.69;;;3.06;100.00
69836;BME280;57132;51.972;4.450;2023-01-16T07:46:54;98149.38;;;3.08;100.00
69836;BME280;57132;51.972;4.450;2023-01-16T07:49:21;98149.38;;;3.08;100.00
69836;BME280;57132;51.972;4.450;2023-01-16T07:51:47;98140.78;;;3.06;100.00
69836;BME280;57132;51.972;4.450;2023-01-16T07:54:12;98140.41;;;3.11;100.00
69836;BME280;57132;51.972;4.450;2023-01-16T07:56:44;98131.41;;;3.13;100.00
69836;BME280;57132;51.972;4.450;2023-01-16T07:59:16;98132.94;;;3.16;100.00
69836;BME280;57132;51.972;4.450;2023-01-16T08:01:41;98127.56;;;3.17;100.00
69836;BME280;57132;51.972;4.450;2023-01-16T08:04:07;98122.28;;;3.17;100.00
69836;BME280;57132;51.972;4.450;2023-01-16T08:06:33;98109.09;;;3.17;100.00
69836;BME280;57132;51.972;4.450;2023-01-16T08:08:58;98102.03;;;3.18;100.00
69836;BME280;57132;51.972;4.450;2023-01-16T08:11:24;98099.97;;;3.22;100.00
69836;BME280;57132;51.972;4.450;2023-01-16T08:14:02;98093.88;;;3.21;100.00
69836;BME280;57132;51.972;4.450;2023-01-16T08:16:27;98093.72;;;3.23;100.00
69836;BME280;57132;51.972;4.450;2023-01-16T08:18:53;98082.47;;;3.20;100.00
69836;BME280;57132;51.972;4.450;2023-01-16T08:21:18;98090.13;;;3.24;100.00
69836;BME280;57132;51.972;4.450;2023-01-16T08:23:44;98075.03;;;3.26;100.00
69836;BME280;57132;51.972;4.450;2023-01-16T08:26:10;98074.31;;;3.24;100.00
69836;BME280;57132;51.972;4.450;2023-01-16T08:28:36;98071.41;;;3.27;100.00
69836;BME280;57132;51.972;4.450;2023-01-16T08:31:19;98071.66;;;3.24;100.00
69836;BME280;57132;51.972;4.450;2023-01-16T08:33:45;98063.66;;;3.25;100.00
69836;BME280;57132;51.972;4.450;2023-01-16T08:36:12;98049.91;;;3.22;100.00
69836;BME280;57132;51.972;4.450;2023-01-16T08:38:38;98047.38;;;3.20;100.00
69836;BME280;57132;51.972;4.450;2023-01-16T08:41:04;98042.00;;;3.22;100.00
69836;BME280;57132;51.972;4.450;2023-01-16T08:43:30;98041.84;;;3.23;100.00
69836;BME280;57132;51.972;4.450;2023-01-16T08:46:22;98032.28;;;3.22;100.00
69836;BME280;57132;51.972;4.450;2023-01-16T08:49:14;98019.78;;;3.24;100.00
69836;BME280;57132;51.972;4.450;2023-01-16T08:51:58;98017.88;;;3.26;100.00
69836;BME280;57132;51.972;4.450;2023-01-16T08:54:24;98013.44;;;3.27;100.00
69836;BME280;57132;51.972;4.450;2023-01-16T08:56:50;98009.81;;;3.28;100.00
69836;BME280;57132;51.972;4.450;2023-01-16T08:59:15;98008.88;;;3.29;100.00
69836;BME280;57132;51.972;4.450;2023-01-16T09:01:41;98005.84;;;3.33;100.00
69836;BME280;57132;51.972;4.450;2023-01-16T09:04:07;98003.19;;;3.33;100.00
69836;BME280;57132;51.972;4.450;2023-01-16T09:06:33;98005.84;;;3.33;100.00
69836;BME280;57132;51.972;4.450;2023-01-16T09:09:02;97997.09;;;3.33;100.00
69836;BME280;57132;51.972;4.450;2023-01-16T09:11:28;98002.91;;;3.36;100.00
69836;BME280;57132;51.972;4.450;2023-01-16T09:14:12;97991.28;;;3.39;100.00
69836;BME280;57132;51.972;4.450;2023-01-16T09:16:37;97989.59;;;3.38;100.00
69836;BME280;57132;51.972;4.450;2023-01-16T09:19:03;97979.63;;;3.41;100.00
69836;BME280;57132;51.972;4.450;2023-01-16T09:21:28;97981.03;;;3.45;100.00
69836;BME280;57132;51.972;4.450;2023-01-16T09:23:54;97972.97;;;3.47;100.00
69836;BME280;57132;51.972;4.450;2023-01-16T09:26:20;97967.69;;;3.47;100.00
69836;BME280;57132;51.972;4.450;2023-01-16T09:28:46;97963.25;;;3.48;100.00
69836;BME280;57132;51.972;4.450;2023-01-16T09:31:11;97964.94;;;3.49;100.00
69836;BME280;57132;51.972;4.450;2023-01-16T09:33:37;97963.16;;;3.49;100.00
69836;BME280;57132;51.972;4.450;2023-01-16T09:36:03;97961.19;;;3.51;100.00
69836;BME280;57132;51.972;4.450;2023-01-16T09:38:29;97960.22;;;3.52;100.00
69836;BME280;57132;51.972;4.450;2023-01-16T09:40:56;97947.03;;;3.52;100.00
69836;BME280;57132;51.972;4.450;2023-01-16T09:43:36;97947.19;;;3.51;100.00
69836;BME280;57132;51.972;4.450;2023-01-16T09:46:35;97944.69;;;3.49;100.00
69836;BME280;57132;51.972;4.450;2023-01-16T09:49:23;97936.47;;;3.52;100.00
69836;BME280;57132;51.972;4.450;2023-01-16T09:51:56;97937.47;;;3.51;100.00
69836;BME280;57132;51.972;4.450;2023-01-16T09:54:49;97936.47;;;3.52;100.00
69836;BME280;57132;51.972;4.450;2023-01-16T09:57:36;97933.72;;;3.54;100.00
69836;BME280;57132;51.972;4.450;2023-01-16T10:00:23;97930.25;;;3.53;100.00
69836;BME280;57132;51.972;4.450;2023-01-16T10:02:49;97925.81;;;3.54;100.00
69836;BME280;57132;51.972;4.450;2023-01-16T10:05:15;97923.19;;;3.54;100.00
69836;BME280;57132;51.972;4.450;2023-01-16T10:08:08;97906.66;;;3.52;100.00
69836;BME280;57132;51.972;4.450;2023-01-16T10:10:51;97914.44;;;3.53;100.00
69836;BME280;57132;51.972;4.450;2023-01-16T10:26:57;97885.31;;;3.64;100.00
69836;BME280;57132;51.972;4.450;2023-01-16T10:29:36;97887.53;;;3.69;100.00
69836;BME280;57132;51.972;4.450;2023-01-16T10:35:02;97870.03;;;3.78;100.00
69836;BME280;57132;51.972;4.450;2023-01-16T10:37:31;97869.06;;;3.79;100.00
69836;BME280;57132;51.972;4.450;2023-01-16T10:39:59;97867.78;;;3.83;100.00
69836;BME280;57132;51.972;4.450;2023-01-16T10:42:31;97863.22;;;3.85;100.00
69836;BME280;57132;51.972;4.450;2023-01-16T10:45:23;97859.47;;;3.87;100.00
69836;BME280;57132;51.972;4.450;2023-01-16T10:48:12;97850.59;;;3.88;100.00
69836;BME280;57132;51.972;4.450;2023-01-16T10:50:58;97851.81;;;3.94;100.00
69836;BME280;57132;51.972;4.450;2023-01-16T10:53:25;97852.38;;;3.98;100.00
69836;BME280;57132;51.972;4.450;2023-01-16T10:55:52;97854.75;;;4.01;100.00
69836;BME280;57132;51.972;4.450;2023-01-16T10:58:31;97850.53;;;4.08;100.00
69836;BME280;57132;51.972;4.450;2023-01-16T11:01:05;97848.34;;;4.13;100.00
69836;BME280;57132;51.972;4.450;2023-01-16T11:03:41;97845.13;;;4.19;100.00
69836;BME280;57132;51.972;4.450;2023-01-16T11:06:20;97834.72;;;4.17;100.00
69836;BME280;57132;51.972;4.450;2023-01-16T11:08:57;97832.75;;;4.19;100.00
69836;BME280;57132;51.972;4.450;2023-01-16T11:11:25;97824.38;;;4.34;100.00
69836;BME280;57132;51.972;4.450;2023-01-16T11:14:21;97825.03;;;4.46;100.00
69836;BME280;57132;51.972;4.450;2023-01-16T11:17:20;97824.16;;;4.55;100.00
69836;BME280;57132;51.972;4.450;2023-01-16T11:20:07;97809.13;;;4.65;100.00
69836;BME280;57132;51.972;4.450;2023-01-16T11:22:38;97801.47;;;4.72;100.00
69836;BME280;57132;51.972;4.450;2023-01-16T11:25:04;97801.66;;;4.88;100.00
69836;BME280;57132;51.972;4.450;2023-01-16T11:27:36;97806.31;;;4.94;100.00
69836;BME280;57132;51.972;4.450;2023-01-16T11:30:16;97804.47;;;5.04;100.00
69836;BME280;57132;51.972;4.450;2023-01-16T11:32:42;97800.47;;;5.18;100.00
69836;BME280;57132;51.972;4.450;2023-01-16T11:35:14;97800.72;;;5.25;100.00
69836;BME280;57132;51.972;4.450;2023-01-16T11:37:42;97799.59;;;5.45;100.00
69836;BME280;57132;51.972;4.450;2023-01-16T11:40:19;97786.44;;;5.71;100.00
69836;BME280;57132;51.972;4.450;2023-01-16T11:42:57;97772.44;;;5.79;100.00
69836;BME280;57132;51.972;4.450;2023-01-16T11:45:46;97780.75;;;5.84;100.00
69836;BME280;57132;51.972;4.450;2023-01-16T11:48:28;97772.97;;;5.82;100.00
69836;BME280;57132;51.972;4.450;2023-01-16T11:50:58;97771.44;;;5.80;100.00
69836;BME280;57132;51.972;4.450;2023-01-16T11:53:32;97764.09;;;5.91;100.00
69836;BME280;57132;51.972;4.450;2023-01-16T12:04:37;97750.50;;;5.86;100.00
69836;BME280;57132;51.972;4.450;2023-01-16T12:07:23;97748.28;;;5.82;100.00
69836;BME280;57132;51.972;4.450;2023-01-16T12:10:02;97746.69;;;5.89;100.00
69836;BME280;57132;51.972;4.450;2023-01-16T12:12:40;97741.69;;;5.86;100.00
69836;BME280;57132;51.972;4.450;2023-01-16T12:19:03;97731.13;;;5.86;100.00
69836;BME280;57132;51.972;4.450;2023-01-16T12:21:25;97735.97;;;5.90;100.00
69836;BME280;57132;51.972;4.450;2023-01-16T12:37:59;97711.06;;;6.01;100.00
69836;BME280;57132;51.972;4.450;2023-01-16T12:43:29;97712.19;;;6.25;100.00
69836;BME280;57132;51.972;4.450;2023-01-16T12:46:20;97704.44;;;6.31;100.00
69836;BME280;57132;51.972;4.450;2023-01-16T12:48:55;97689.84;;;6.27;100.00
69836;BME280;57132;51.972;4.450;2023-01-16T12:54:23;97693.69;;;6.33;100.00
69836;BME280;57132;51.972;4.450;2023-01-16T12:59:52;97696.78;;;6.20;100.00
69836;BME280;57132;51.972;4.450;2023-01-16T13:02:27;97685.63;;;6.08;100.00
69836;BME280;57132;51.972;4.450;2023-01-16T13:04:59;97680.97;;;6.02;100.00
69836;BME280;57132;51.972;4.450;2023-01-16T13:07:31;97676.91;;;5.90;100.00
69836;BME280;57132;51.972;4.450;2023-01-16T13:09:59;97666.53;;;5.71;100.00
69836;BME280;57132;51.972;4.450;2023-01-16T13:12:46;97672.78;;;5.70;100.00
69836;BME280;57132;51.972;4.450;2023-01-16T13:15:36;97669.97;;;5.63;100.00
69836;BME280;57132;51.972;4.450;2023-01-16T13:18:16;97669.72;;;5.56;100.00
69836;BME280;57132;51.972;4.450;2023-01-16T13:20:45;97667.69;;;5.50;100.00
69836;BME280;57132;51.972;4.450;2023-01-16T13:23:20;97661.56;;;5.50;100.00
69836;BME280;57132;51.972;4.450;2023-01-16T13:25:49;97658.63;;;5.53;100.00
69836;BME280;57132;51.972;4.450;2023-01-16T13:28:47;97659.75;;;5.50;100.00
69836;BME280;57132;51.972;4.450;2023-01-16T13:37:15;97649.50;;;5.47;100.00
69836;BME280;57132;51.972;4.450;2023-01-16T13:42:47;97651.63;;;5.43;100.00
69836;BME280;57132;51.972;4.450;2023-01-16T13:45:31;97653.81;;;5.48;100.00
69836;BME280;57132;51.972;4.450;2023-01-16T13:48:22;97650.47;;;5.46;100.00
69836;BME280;57132;51.972;4.450;2023-01-16T13:50:58;97652.41;;;5.36;100.00
69836;BME280;57132;51.972;4.450;2023-01-16T13:53:31;97657.47;;;5.29;100.00
69836;BME280;57132;51.972;4.450;2023-01-16T13:56:19;97656.94;;;5.26;100.00
69836;BME280;57132;51.972;4.450;2023-01-16T13:58:59;97653.34;;;5.27;100.00
69836;BME280;57132;51.972;4.450;2023-01-16T14:01:31;97645.22;;;5.28;100.00
69836;BME280;57132;51.972;4.450;2023-01-16T14:06:51;97646.75;;;5.31;100.00
69836;BME280;57132;51.972;4.450;2023-01-16T14:18:42;97646.59;;;5.32;100.00
69836;BME280;57132;51.972;4.450;2023-01-16T14:24:04;97643.41;;;5.29;100.00
69836;BME280;57132;51.972;4.450;2023-01-16T14:29:28;97648.72;;;5.29;100.00
69836;BME280;57132;51.972;4.450;2023-01-16T14:37:20;97639.88;;;5.20;100.00
69836;BME280;57132;51.972;4.450;2023-01-16T14:39:49;97644.81;;;5.15;100.00
69836;BME280;57132;51.972;4.450;2023-01-16T14:42:21;97646.22;;;5.09;100.00
69836;BME280;57132;51.972;4.450;2023-01-16T14:48:05;97648.50;;;5.04;100.00
69836;BME280;57132;51.972;4.450;2023-01-16T14:51:34;97649.44;;;4.95;100.00
69836;BME280;57132;51.972;4.450;2023-01-16T14:54:33;97645.31;;;4.83;100.00
69836;BME280;57132;51.972;4.450;2023-01-16T14:57:22;97657.34;;;4.77;100.00
69836;BME280;57132;51.972;4.450;2023-01-16T15:00:11;97651.44;;;4.65;100.00
69836;BME280;57132;51.972;4.450;2023-01-16T15:03:04;97655.53;;;4.60;100.00
69836;BME280;57132;51.972;4.450;2023-01-16T15:05:36;97662.75;;;4.58;100.00
69836;BME280;57132;51.972;4.450;2023-01-16T15:08:28;97666.38;;;4.57;100.00
69836;BME280;57132;51.972;4.450;2023-01-16T15:10:59;97670.44;;;4.51;100.00
69836;BME280;57132;51.972;4.450;2023-01-16T15:13:43;97671.50;;;4.40;100.00
69836;BME280;57132;51.972;4.450;2023-01-16T15:16:27;97677.25;;;4.26;100.00
69836;BME280;57132;51.972;4.450;2023-01-16T15:19:31;97675.34;;;4.18;100.00
69836;BME280;57132;51.972;4.450;2023-01-16T15:22:38;97681.75;;;4.16;100.00
69836;BME280;57132;51.972;4.450;2023-01-16T15:25:16;97681.50;;;4.09;100.00